sensor_id;sensor_type;location;lat;lon;timestamp;temperature;humidity
54960;DHT22;40860;51.710;8.736;2023-01-28T00:02:50;1.90;99.30
54960;DHT22;40860;51.710;8.736;2023-01-28T00:06:53;1.90;99.40
54960;DHT22;40860;51.710;8.736;2023-01-28T00:10:58;1.90;99.30
54960;DHT22;40860;51.710;8.736;2023-01-28T00:15:03;1.90;99.40
54960;DHT22;40860;51.710;8.736;2023-01-28T00:19:06;1.90;99.80
54960;DHT22;40860;51.710;8.736;2023-01-28T00:23:09;1.90;99.70
54960;DHT22;40860;51.710;8.736;2023-01-28T00:27:12;1.80;99.70
54960;DHT22;40860;51.710;8.736;2023-01-28T00:31:17;1.80;99.90
54960;DHT22;40860;51.710;8.736;2023-01-28T00:35:20;1.70;99.80
54960;DHT22;40860;51.710;8.736;2023-01-28T00:39:23;1.70;99.70
54960;DHT22;40860;51.710;8.736;2023-01-28T00:43:27;1.70;99.50
54960;DHT22;40860;51.710;8.736;2023-01-28T00:47:31;1.70;99.50
54960;DHT22;40860;51.710;8.736;2023-01-28T00:51:37;1.70;99.70
54960;DHT22;40860;51.710;8.736;2023-01-28T00:55:42;1.70;99.70
54960;DHT22;40860;51.710;8.736;2023-01-28T00:59:51;1.60;99.70
54960;DHT22;40860;51.710;8.736;2023-01-28T01:03:57;1.60;99.80
54960;DHT22;40860;51.710;8.736;2023-01-28T01:08:12;1.60;99.90
54960;DHT22;40860;51.710;8.736;2023-01-28T01:12:17;1.60;99.80
54960;DHT22;40860;51.710;8.736;2023-01-28T01:16:22;1.60;99.80
54960;DHT22;40860;51.710;8.736;2023-01-28T01:20:32;1.60;99.80
54960;DHT22;40860;51.710;8.736;2023-01-28T01:24:41;1.50;99.80
54960;DHT22;40860;51.710;8.736;2023-01-28T01:28:44;1.60;99.60
54960;DHT22;40860;51.710;8.736;2023-01-28T01:32:47;1.50;99.60
54960;DHT22;40860;51.710;8.736;2023-01-28T01:36:56;1.50;99.80
54960;DHT22;40860;51.710;8.736;2023-01-28T01:41:00;1.50;99.80
54960;DHT22;40860;51.710;8.736;2023-01-28T01:45:04;1.50;99.80
54960;DHT22;40860;51.710;8.736;2023-01-28T01:49:14;1.50;99.80
54960;DHT22;40860;51.710;8.736;2023-01-28T01:53:22;1.50;99.80
54960;DHT22;40860;51.710;8.736;2023-01-28T01:57:37;1.50;99.80
54960;DHT22;40860;51.710;8.736;2023-01-28T02:01:43;1.50;99.80
54960;DHT22;40860;51.710;8.736;2023-01-28T02:05:48;1.50;99.90
54960;DHT22;40860;51.710;8.736;2023-01-28T02:09:53;1.50;99.90
54960;DHT22;40860;51.710;8.736;2023-01-28T02:13:57;1.50;99.90
54960;DHT22;40860;51.710;8.736;2023-01-28T02:18:01;1.50;99.90
54960;DHT22;40860;51.710;8.736;2023-01-28T02:27:13;1.40;99.90
54960;DHT22;40860;51.710;8.736;2023-01-28T02:31:25;1.50;99.90
54960;DHT22;40860;51.710;8.736;2023-01-28T02:35:36;1.50;99.90
54960;DHT22;40860;51.710;8.736;2023-01-28T02:39:48;1.50;99.90
54960;DHT22;40860;51.710;8.736;2023-01-28T02:43:51;1.50;99.90
54960;DHT22;40860;51.710;8.736;2023-01-28T02:47:55;1.50;99.90
54960;DHT22;40860;51.710;8.736;2023-01-28T02:52:10;1.50;99.90
54960;DHT22;40860;51.710;8.736;2023-01-28T02:56:19;1.50;99.90
54960;DHT22;40860;51.710;8.736;2023-01-28T03:00:40;1.40;99.90
54960;DHT22;40860;51.710;8.736;2023-01-28T03:04:51;1.40;99.80
54960;DHT22;40860;51.710;8.736;2023-01-28T03:08:58;1.40;99.60
54960;DHT22;40860;51.710;8.736;2023-01-28T03:13:20;1.40;99.50
54960;DHT22;40860;51.710;8.736;2023-01-28T03:17:43;1.40;99.40
54960;DHT22;40860;51.710;8.736;2023-01-28T03:22:07;1.40;99.50
54960;DHT22;40860;51.710;8.736;2023-01-28T03:26:29;1.30;99.20
54960;DHT22;40860;51.710;8.736;2023-01-28T03:30:57;1.30;99.20
54960;DHT22;40860;51.710;8.736;2023-01-28T03:35:28;1.30;99.20
54960;DHT22;40860;51.710;8.736;2023-01-28T03:39:53;1.30;99.10
54960;DHT22;40860;51.710;8.736;2023-01-28T03:44:01;1.30;98.90
54960;DHT22;40860;51.710;8.736;2023-01-28T03:48:24;1.30;98.70
54960;DHT22;40860;51.710;8.736;2023-01-28T03:52:29;1.20;98.60
54960;DHT22;40860;51.710;8.736;2023-01-28T03:56:56;1.30;98.60
54960;DHT22;40860;51.710;8.736;2023-01-28T04:01:06;1.30;98.30
54960;DHT22;40860;51.710;8.736;2023-01-28T04:05:09;1.30;98.60
54960;DHT22;40860;51.710;8.736;2023-01-28T04:09:21;1.30;98.50
54960;DHT22;40860;51.710;8.736;2023-01-28T04:14:00;1.30;98.60
54960;DHT22;40860;51.710;8.736;2023-01-28T04:18:15;1.30;98.40
54960;DHT22;40860;51.710;8.736;2023-01-28T04:22:18;1.20;98.80
54960;DHT22;40860;51.710;8.736;2023-01-28T04:26:21;1.20;98.60
54960;DHT22;40860;51.710;8.736;2023-01-28T04:30:26;1.20;98.90
54960;DHT22;40860;51.710;8.736;2023-01-28T04:35:05;1.20;98.90
54960;DHT22;40860;51.710;8.736;2023-01-28T04:39:22;1.20;98.80
54960;DHT22;40860;51.710;8.736;2023-01-28T04:43:44;1.20;98.80
54960;DHT22;40860;51.710;8.736;2023-01-28T04:48:07;1.20;98.60
54960;DHT22;40860;51.710;8.736;2023-01-28T04:52:26;1.20;98.60
54960;DHT22;40860;51.710;8.736;2023-01-28T04:56:38;1.20;98.50
54960;DHT22;40860;51.710;8.736;2023-01-28T05:00:40;1.20;98.50
54960;DHT22;40860;51.710;8.736;2023-01-28T05:04:45;1.20;98.30
54960;DHT22;40860;51.710;8.736;2023-01-28T05:09:03;1.10;98.00
54960;DHT22;40860;51.710;8.736;2023-01-28T05:13:07;1.10;98.30
54960;DHT22;40860;51.710;8.736;2023-01-28T05:17:09;1.10;98.00
54960;DHT22;40860;51.710;8.736;2023-01-28T05:21:14;1.10;98.20
54960;DHT22;40860;51.710;8.736;2023-01-28T05:25:18;1.10;98.10
54960;DHT22;40860;51.710;8.736;2023-01-28T05:29:21;1.10;98.10
54960;DHT22;40860;51.710;8.736;2023-01-28T05:33:24;1.10;98.20
54960;DHT22;40860;51.710;8.736;2023-01-28T05:37:29;1.10;98.20
54960;DHT22;40860;51.710;8.736;2023-01-28T05:41:32;1.10;98.10
54960;DHT22;40860;51.710;8.736;2023-01-28T05:45:40;1.00;98.10
54960;DHT22;40860;51.710;8.736;2023-01-28T05:49:46;1.00;97.60
54960;DHT22;40860;51.710;8.736;2023-01-28T05:54:09;1.00;97.80
54960;DHT22;40860;51.710;8.736;2023-01-28T05:58:14;1.10;97.90
54960;DHT22;40860;51.710;8.736;2023-01-28T06:02:17;1.10;97.50
54960;DHT22;40860;51.710;8.736;2023-01-28T06:06:20;1.10;97.60
54960;DHT22;40860;51.710;8.736;2023-01-28T06:10:24;1.10;97.60
54960;DHT22;40860;51.710;8.736;2023-01-28T06:14:29;1.10;97.50
54960;DHT22;40860;51.710;8.736;2023-01-28T06:19:13;1.10;97.60
54960;DHT22;40860;51.710;8.736;2023-01-28T06:23:16;1.10;97.50
54960;DHT22;40860;51.710;8.736;2023-01-28T06:27:21;1.10;97.50
54960;DHT22;40860;51.710;8.736;2023-01-28T06:31:24;1.00;97.50
54960;DHT22;40860;51.710;8.736;2023-01-28T06:35:27;1.00;97.40
54960;DHT22;40860;51.710;8.736;2023-01-28T06:39:29;1.00;97.30
54960;DHT22;40860;51.710;8.736;2023-01-28T06:43:35;1.00;97.30
54960;DHT22;40860;51.710;8.736;2023-01-28T06:47:40;1.00;97.00
54960;DHT22;40860;51.710;8.736;2023-01-28T06:51:43;1.00;96.80
54960;DHT22;40860;51.710;8.736;2023-01-28T06:55:46;1.00;96.90
54960;DHT22;40860;51.710;8.736;2023-01-28T06:59:50;1.00;96.90
54960;DHT22;40860;51.710;8.736;2023-01-28T07:03:53;1.00;96.70
54960;DHT22;40860;51.710;8.736;2023-01-28T07:07:56;1.00;96.70
54960;DHT22;40860;51.710;8.736;2023-01-28T07:12:02;1.00;96.90
54960;DHT22;40860;51.710;8.736;2023-01-28T07:16:08;1.00;97.00
54960;DHT22;40860;51.710;8.736;2023-01-28T07:20:13;1.00;96.90
54960;DHT22;40860;51.710;8.736;2023-01-28T07:24:20;1.00;96.90
54960;DHT22;40860;51.710;8.736;2023-01-28T07:28:23;1.00;96.90
54960;DHT22;40860;51.710;8.736;2023-01-28T07:32:27;1.00;97.00
54960;DHT22;40860;51.710;8.736;2023-01-28T07:36:30;1.00;96.90
54960;DHT22;40860;51.710;8.736;2023-01-28T07:40:33;1.00;96.80
54960;DHT22;40860;51.710;8.736;2023-01-28T07:44:36;1.00;96.60
54960;DHT22;40860;51.710;8.736;2023-01-28T07:48:43;1.00;96.30
54960;DHT22;40860;51.710;8.736;2023-01-28T07:52:46;1.00;96.40
54960;DHT22;40860;51.710;8.736;2023-01-28T07:56:49;1.00;96.10
54960;DHT22;40860;51.710;8.736;2023-01-28T08:00:55;1.00;96.30
54960;DHT22;40860;51.710;8.736;2023-01-28T08:04:59;1.00;96.20
54960;DHT22;40860;51.710;8.736;2023-01-28T08:09:03;1.00;95.20
54960;DHT22;40860;51.710;8.736;2023-01-28T08:13:08;1.10;95.00
54960;DHT22;40860;51.710;8.736;2023-01-28T08:17:11;1.10;95.50
54960;DHT22;40860;51.710;8.736;2023-01-28T08:21:15;1.10;95.80
54960;DHT22;40860;51.710;8.736;2023-01-28T08:25:18;1.20;95.80
54960;DHT22;40860;51.710;8.736;2023-01-28T08:29:22;1.20;95.70
54960;DHT22;40860;51.710;8.736;2023-01-28T08:33:24;1.20;95.40
54960;DHT22;40860;51.710;8.736;2023-01-28T08:37:28;1.20;95.30
54960;DHT22;40860;51.710;8.736;2023-01-28T08:41:31;1.20;95.30
54960;DHT22;40860;51.710;8.736;2023-01-28T08:45:34;1.20;95.40
54960;DHT22;40860;51.710;8.736;2023-01-28T08:49:37;1.30;95.60
54960;DHT22;40860;51.710;8.736;2023-01-28T08:53:41;1.30;95.50
54960;DHT22;40860;51.710;8.736;2023-01-28T08:57:44;1.30;95.70
54960;DHT22;40860;51.710;8.736;2023-01-28T09:01:47;1.40;95.50
54960;DHT22;40860;51.710;8.736;2023-01-28T09:05:51;1.40;95.10
54960;DHT22;40860;51.710;8.736;2023-01-28T09:09:55;1.40;95.20
54960;DHT22;40860;51.710;8.736;2023-01-28T09:13:58;1.40;94.70
54960;DHT22;40860;51.710;8.736;2023-01-28T09:18:01;1.40;94.70
54960;DHT22;40860;51.710;8.736;2023-01-28T09:22:04;1.40;94.50
54960;DHT22;40860;51.710;8.736;2023-01-28T09:26:09;1.40;94.70
54960;DHT22;40860;51.710;8.736;2023-01-28T09:30:12;1.40;94.30
54960;DHT22;40860;51.710;8.736;2023-01-28T09:34:16;1.40;94.30
54960;DHT22;40860;51.710;8.736;2023-01-28T09:38:18;1.40;94.30
54960;DHT22;40860;51.710;8.736;2023-01-28T09:42:33;1.50;93.70
54960;DHT22;40860;51.710;8.736;2023-01-28T09:46:37;1.50;93.20
54960;DHT22;40860;51.710;8.736;2023-01-28T09:50:45;1.50;93.50
54960;DHT22;40860;51.710;8.736;2023-01-28T09:54:52;1.60;93.60
54960;DHT22;40860;51.710;8.736;2023-01-28T09:59:01;1.60;93.70
54960;DHT22;40860;51.710;8.736;2023-01-28T10:03:32;1.70;93.50
54960;DHT22;40860;51.710;8.736;2023-01-28T10:07:43;1.60;93.30
54960;DHT22;40860;51.710;8.736;2023-01-28T10:12:08;1.60;93.10
54960;DHT22;40860;51.710;8.736;2023-01-28T10:16:28;1.60;93.00
54960;DHT22;40860;51.710;8.736;2023-01-28T10:20:36;1.50;93.20
54960;DHT22;40860;51.710;8.736;2023-01-28T10:24:45;1.40;92.90
54960;DHT22;40860;51.710;8.736;2023-01-28T10:28:53;1.50;93.40
54960;DHT22;40860;51.710;8.736;2023-01-28T10:33:01;1.50;93.00
54960;DHT22;40860;51.710;8.736;2023-01-28T10:37:05;1.50;93.00
54960;DHT22;40860;51.710;8.736;2023-01-28T10:41:10;1.40;92.70
54960;DHT22;40860;51.710;8.736;2023-01-28T10:45:17;1.40;92.70
54960;DHT22;40860;51.710;8.736;2023-01-28T10:49:26;1.50;93.40
54960;DHT22;40860;51.710;8.736;2023-01-28T10:53:34;1.50;93.60
54960;DHT22;40860;51.710;8.736;2023-01-28T10:57:40;1.50;92.40
54960;DHT22;40860;51.710;8.736;2023-01-28T11:01:46;1.40;92.20
54960;DHT22;40860;51.710;8.736;2023-01-28T11:05:53;1.40;93.00
54960;DHT22;40860;51.710;8.736;2023-01-28T11:09:56;1.50;93.20
54960;DHT22;40860;51.710;8.736;2023-01-28T11:14:00;1.50;92.70
54960;DHT22;40860;51.710;8.736;2023-01-28T11:18:05;1.60;92.90
54960;DHT22;40860;51.710;8.736;2023-01-28T11:22:22;1.60;92.10
54960;DHT22;40860;51.710;8.736;2023-01-28T11:26:28;1.60;92.30
54960;DHT22;40860;51.710;8.736;2023-01-28T11:30:35;1.70;92.20
54960;DHT22;40860;51.710;8.736;2023-01-28T11:34:48;1.70;92.50
54960;DHT22;40860;51.710;8.736;2023-01-28T11:38:54;1.70;92.40
54960;DHT22;40860;51.710;8.736;2023-01-28T11:42:57;1.70;92.10
54960;DHT22;40860;51.710;8.736;2023-01-28T11:47:19;1.70;92.20
54960;DHT22;40860;51.710;8.736;2023-01-28T11:51:33;1.70;92.30
54960;DHT22;40860;51.710;8.736;2023-01-28T11:55:48;1.70;91.80
54960;DHT22;40860;51.710;8.736;2023-01-28T12:00:14;1.70;92.00
54960;DHT22;40860;51.710;8.736;2023-01-28T12:04:37;1.70;91.90
54960;DHT22;40860;51.710;8.736;2023-01-28T12:08:47;1.70;92.00
54960;DHT22;40860;51.710;8.736;2023-01-28T12:13:09;1.80;92.00
54960;DHT22;40860;51.710;8.736;2023-01-28T12:17:22;1.90;92.10
54960;DHT22;40860;51.710;8.736;2023-01-28T12:21:40;1.90;91.80
54960;DHT22;40860;51.710;8.736;2023-01-28T12:26:01;1.90;91.30
54960;DHT22;40860;51.710;8.736;2023-01-28T12:30:17;1.90;90.90
54960;DHT22;40860;51.710;8.736;2023-01-28T12:39:01;2.10;91.30
54960;DHT22;40860;51.710;8.736;2023-01-28T12:43:11;2.20;91.00
54960;DHT22;40860;51.710;8.736;2023-01-28T12:47:21;2.30;90.80
54960;DHT22;40860;51.710;8.736;2023-01-28T12:51:29;2.30;90.50
54960;DHT22;40860;51.710;8.736;2023-01-28T12:55:38;2.40;90.30
54960;DHT22;40860;51.710;8.736;2023-01-28T12:59:46;2.30;89.70
54960;DHT22;40860;51.710;8.736;2023-01-28T13:03:55;2.20;89.10
54960;DHT22;40860;51.710;8.736;2023-01-28T13:08:02;2.20;90.40
54960;DHT22;40860;51.710;8.736;2023-01-28T13:12:06;2.30;90.60
54960;DHT22;40860;51.710;8.736;2023-01-28T13:16:12;2.40;90.30
54960;DHT22;40860;51.710;8.736;2023-01-28T13:20:30;2.50;89.70
54960;DHT22;40860;51.710;8.736;2023-01-28T13:24:36;2.50;88.90
54960;DHT22;40860;51.710;8.736;2023-01-28T13:28:39;2.60;90.00
54960;DHT22;40860;51.710;8.736;2023-01-28T13:32:54;2.70;89.30
54960;DHT22;40860;51.710;8.736;2023-01-28T13:37:01;2.60;87.60
54960;DHT22;40860;51.710;8.736;2023-01-28T13:41:06;2.70;88.90
54960;DHT22;40860;51.710;8.736;2023-01-28T13:45:22;2.80;89.10
54960;DHT22;40860;51.710;8.736;2023-01-28T13:49:31;2.90;89.10
54960;DHT22;40860;51.710;8.736;2023-01-28T13:53:40;2.90;87.60
54960;DHT22;40860;51.710;8.736;2023-01-28T13:58:28;2.80;86.40
54960;DHT22;40860;51.710;8.736;2023-01-28T14:02:55;2.60;87.00
54960;DHT22;40860;51.710;8.736;2023-01-28T14:07:08;2.50;88.30
54960;DHT22;40860;51.710;8.736;2023-01-28T14:11:31;2.60;87.70
54960;DHT22;40860;51.710;8.736;2023-01-28T14:15:48;2.60;87.40
54960;DHT22;40860;51.710;8.736;2023-01-28T14:19:54;2.50;87.60
54960;DHT22;40860;51.710;8.736;2023-01-28T14:23:59;2.20;87.50
54960;DHT22;40860;51.710;8.736;2023-01-28T14:28:04;2.20;88.20
54960;DHT22;40860;51.710;8.736;2023-01-28T14:32:13;2.10;88.80
54960;DHT22;40860;51.710;8.736;2023-01-28T14:36:16;2.20;89.10
54960;DHT22;40860;51.710;8.736;2023-01-28T14:40:20;2.20;89.90
54960;DHT22;40860;51.710;8.736;2023-01-28T14:44:30;2.20;90.10
54960;DHT22;40860;51.710;8.736;2023-01-28T14:48:39;2.30;90.10
54960;DHT22;40860;51.710;8.736;2023-01-28T14:53:16;2.30;90.00
54960;DHT22;40860;51.710;8.736;2023-01-28T14:57:41;2.20;90.20
54960;DHT22;40860;51.710;8.736;2023-01-28T15:01:48;2.20;90.20
54960;DHT22;40860;51.710;8.736;2023-01-28T15:06:04;2.00;90.10
54960;DHT22;40860;51.710;8.736;2023-01-28T15:10:15;1.90;90.30
54960;DHT22;40860;51.710;8.736;2023-01-28T15:14:24;1.80;90.30
54960;DHT22;40860;51.710;8.736;2023-01-28T15:18:32;1.70;90.60
54960;DHT22;40860;51.710;8.736;2023-01-28T15:22:36;1.60;90.70
54960;DHT22;40860;51.710;8.736;2023-01-28T15:26:45;1.50;90.90
54960;DHT22;40860;51.710;8.736;2023-01-28T15:30:49;1.50;91.40
54960;DHT22;40860;51.710;8.736;2023-01-28T15:34:53;1.50;91.60
54960;DHT22;40860;51.710;8.736;2023-01-28T15:38:56;1.40;91.50
54960;DHT22;40860;51.710;8.736;2023-01-28T15:42:59;1.30;91.80
54960;DHT22;40860;51.710;8.736;2023-01-28T15:47:04;1.20;91.80
54960;DHT22;40860;51.710;8.736;2023-01-28T15:51:19;1.10;91.90
54960;DHT22;40860;51.710;8.736;2023-01-28T15:55:36;1.10;92.00
54960;DHT22;40860;51.710;8.736;2023-01-28T15:59:39;1.00;92.20
54960;DHT22;40860;51.710;8.736;2023-01-28T16:03:43;0.90;92.40
54960;DHT22;40860;51.710;8.736;2023-01-28T16:07:48;0.80;92.60
54960;DHT22;40860;51.710;8.736;2023-01-28T16:11:51;0.80;92.80
54960;DHT22;40860;51.710;8.736;2023-01-28T16:15:55;0.70;92.90
54960;DHT22;40860;51.710;8.736;2023-01-28T16:20:00;0.60;93.20
54960;DHT22;40860;51.710;8.736;2023-01-28T16:24:19;0.50;93.30
54960;DHT22;40860;51.710;8.736;2023-01-28T16:28:23;0.50;93.60
54960;DHT22;40860;51.710;8.736;2023-01-28T16:32:28;0.40;93.80
54960;DHT22;40860;51.710;8.736;2023-01-28T16:36:32;0.40;94.00
54960;DHT22;40860;51.710;8.736;2023-01-28T16:40:37;0.40;94.20
54960;DHT22;40860;51.710;8.736;2023-01-28T16:44:40;0.30;94.30
54960;DHT22;40860;51.710;8.736;2023-01-28T16:48:43;0.30;94.40
54960;DHT22;40860;51.710;8.736;2023-01-28T16:52:48;0.30;94.60
54960;DHT22;40860;51.710;8.736;2023-01-28T16:56:54;0.30;94.60
54960;DHT22;40860;51.710;8.736;2023-01-28T17:00:58;0.30;94.60
54960;DHT22;40860;51.710;8.736;2023-01-28T17:05:01;0.30;94.60
54960;DHT22;40860;51.710;8.736;2023-01-28T17:09:04;0.10;94.60
54960;DHT22;40860;51.710;8.736;2023-01-28T17:13:10;0.00;94.80
54960;DHT22;40860;51.710;8.736;2023-01-28T17:17:13;-0.20;95.20
54960;DHT22;40860;51.710;8.736;2023-01-28T17:21:16;-0.30;95.40
54960;DHT22;40860;51.710;8.736;2023-01-28T17:25:19;-0.40;95.60
54960;DHT22;40860;51.710;8.736;2023-01-28T17:29:24;-0.50;95.70
54960;DHT22;40860;51.710;8.736;2023-01-28T17:33:27;-0.50;96.00
54960;DHT22;40860;51.710;8.736;2023-01-28T17:37:30;-0.50;96.10
54960;DHT22;40860;51.710;8.736;2023-01-28T17:41:33;-0.60;96.10
54960;DHT22;40860;51.710;8.736;2023-01-28T17:45:37;-0.70;96.40
54960;DHT22;40860;51.710;8.736;2023-01-28T17:49:40;-0.80;96.50
54960;DHT22;40860;51.710;8.736;2023-01-28T17:53:44;-0.90;96.80
54960;DHT22;40860;51.710;8.736;2023-01-28T17:57:47;-1.00;97.10
54960;DHT22;40860;51.710;8.736;2023-01-28T18:01:51;-1.00;97.20
54960;DHT22;40860;51.710;8.736;2023-01-28T18:05:56;-1.00;97.30
54960;DHT22;40860;51.710;8.736;2023-01-28T18:09:59;-1.00;97.50
54960;DHT22;40860;51.710;8.736;2023-01-28T18:14:02;-1.10;97.50
54960;DHT22;40860;51.710;8.736;2023-01-28T18:18:06;-1.00;97.80
54960;DHT22;40860;51.710;8.736;2023-01-28T18:22:09;-1.00;97.70
54960;DHT22;40860;51.710;8.736;2023-01-28T18:26:12;-1.10;97.50
54960;DHT22;40860;51.710;8.736;2023-01-28T18:30:15;-1.10;97.70
54960;DHT22;40860;51.710;8.736;2023-01-28T18:34:21;-1.10;97.80
54960;DHT22;40860;51.710;8.736;2023-01-28T18:38:24;-1.20;98.10
54960;DHT22;40860;51.710;8.736;2023-01-28T18:42:27;-1.20;98.10
54960;DHT22;40860;51.710;8.736;2023-01-28T18:46:30;-1.20;98.00
54960;DHT22;40860;51.710;8.736;2023-01-28T18:50:34;-1.20;98.10
54960;DHT22;40860;51.710;8.736;2023-01-28T18:54:37;-1.20;98.10
54960;DHT22;40860;51.710;8.736;2023-01-28T18:58:40;-1.30;98.10
54960;DHT22;40860;51.710;8.736;2023-01-28T19:02:43;-1.30;98.30
54960;DHT22;40860;51.710;8.736;2023-01-28T19:06:47;-1.30;98.30
54960;DHT22;40860;51.710;8.736;2023-01-28T19:10:54;-1.30;98.30
54960;DHT22;40860;51.710;8.736;2023-01-28T19:14:58;-1.30;98.30
54960;DHT22;40860;51.710;8.736;2023-01-28T19:19:01;-1.30;98.60
54960;DHT22;40860;51.710;8.736;2023-01-28T19:23:06;-1.30;98.70
54960;DHT22;40860;51.710;8.736;2023-01-28T19:27:09;-1.30;98.70
54960;DHT22;40860;51.710;8.736;2023-01-28T19:31:11;-1.30;98.60
54960;DHT22;40860;51.710;8.736;2023-01-28T19:35:15;-1.30;98.70
54960;DHT22;40860;51.710;8.736;2023-01-28T19:39:20;-1.30;99.10
54960;DHT22;40860;51.710;8.736;2023-01-28T19:43:22;-1.30;98.80
54960;DHT22;40860;51.710;8.736;2023-01-28T19:47:25;-1.30;98.70
54960;DHT22;40860;51.710;8.736;2023-01-28T19:51:28;-1.40;98.70
54960;DHT22;40860;51.710;8.736;2023-01-28T19:55:36;-1.40;98.80
54960;DHT22;40860;51.710;8.736;2023-01-28T19:59:39;-1.50;98.90
54960;DHT22;40860;51.710;8.736;2023-01-28T20:03:43;-1.50;98.80
54960;DHT22;40860;51.710;8.736;2023-01-28T20:07:46;-1.50;98.90
54960;DHT22;40860;51.710;8.736;2023-01-28T20:11:51;-1.50;98.90
54960;DHT22;40860;51.710;8.736;2023-01-28T20:15:53;-1.50;98.90
54960;DHT22;40860;51.710;8.736;2023-01-28T20:19:56;-1.60;98.90
54960;DHT22;40860;51.710;8.736;2023-01-28T20:24:00;-1.70;99.00
54960;DHT22;40860;51.710;8.736;2023-01-28T20:28:05;-1.60;99.30
54960;DHT22;40860;51.710;8.736;2023-01-28T20:32:08;-1.60;99.20
54960;DHT22;40860;51.710;8.736;2023-01-28T20:36:19;-1.70;99.20
54960;DHT22;40860;51.710;8.736;2023-01-28T20:40:22;-1.70;99.20
54960;DHT22;40860;51.710;8.736;2023-01-28T20:44:27;-1.70;99.40
54960;DHT22;40860;51.710;8.736;2023-01-28T20:48:32;-1.70;99.40
54960;DHT22;40860;51.710;8.736;2023-01-28T20:52:35;-1.70;99.50
54960;DHT22;40860;51.710;8.736;2023-01-28T20:56:38;-1.70;99.50
54960;DHT22;40860;51.710;8.736;2023-01-28T21:00:43;-1.70;99.50
54960;DHT22;40860;51.710;8.736;2023-01-28T21:04:47;-1.60;99.60
54960;DHT22;40860;51.710;8.736;2023-01-28T21:08:51;-1.50;99.70
54960;DHT22;40860;51.710;8.736;2023-01-28T21:12:54;-1.50;99.60
54960;DHT22;40860;51.710;8.736;2023-01-28T21:16:58;-1.40;99.60
54960;DHT22;40860;51.710;8.736;2023-01-28T21:21:02;-1.40;99.50
54960;DHT22;40860;51.710;8.736;2023-01-28T21:25:06;-1.30;99.50
54960;DHT22;40860;51.710;8.736;2023-01-28T21:29:09;-1.30;99.40
54960;DHT22;40860;51.710;8.736;2023-01-28T21:33:13;-1.30;99.30
54960;DHT22;40860;51.710;8.736;2023-01-28T21:37:15;-1.30;99.20
54960;DHT22;40860;51.710;8.736;2023-01-28T21:41:23;-1.20;99.20
54960;DHT22;40860;51.710;8.736;2023-01-28T21:45:26;-1.20;99.20
54960;DHT22;40860;51.710;8.736;2023-01-28T21:49:30;-1.20;99.20
54960;DHT22;40860;51.710;8.736;2023-01-28T21:53:34;-1.10;99.20
54960;DHT22;40860;51.710;8.736;2023-01-28T21:57:37;-1.10;99.20
54960;DHT22;40860;51.710;8.736;2023-01-28T22:01:41;-1.00;99.30
54960;DHT22;40860;51.710;8.736;2023-01-28T22:05:53;-1.00;99.20
54960;DHT22;40860;51.710;8.736;2023-01-28T22:09:56;-1.00;99.20
54960;DHT22;40860;51.710;8.736;2023-01-28T22:13:59;-1.00;99.10
54960;DHT22;40860;51.710;8.736;2023-01-28T22:18:02;-0.90;99.20
54960;DHT22;40860;51.710;8.736;2023-01-28T22:22:06;-0.90;99.20
54960;DHT22;40860;51.710;8.736;2023-01-28T22:26:09;-0.90;99.10
54960;DHT22;40860;51.710;8.736;2023-01-28T22:30:12;-0.90;99.10
54960;DHT22;40860;51.710;8.736;2023-01-28T22:34:16;-0.90;99.10
54960;DHT22;40860;51.710;8.736;2023-01-28T22:38:21;-0.90;99.10
54960;DHT22;40860;51.710;8.736;2023-01-28T22:42:24;-0.90;99.00
54960;DHT22;40860;51.710;8.736;2023-01-28T22:46:28;-1.00;98.90
54960;DHT22;40860;51.710;8.736;2023-01-28T22:50:33;-1.10;98.80
54960;DHT22;40860;51.710;8.736;2023-01-28T22:54:37;-1.10;98.80
54960;DHT22;40860;51.710;8.736;2023-01-28T22:58:40;-1.20;98.90
54960;DHT22;40860;51.710;8.736;2023-01-28T23:02:43;-1.30;99.00
54960;DHT22;40860;51.710;8.736;2023-01-28T23:06:46;-1.40;99.10
54960;DHT22;40860;51.710;8.736;2023-01-28T23:10:50;-1.40;99.20
54960;DHT22;40860;51.710;8.736;2023-01-28T23:14:53;-1.50;99.10
54960;DHT22;40860;51.710;8.736;2023-01-28T23:19:13;-1.50;99.20
54960;DHT22;40860;51.710;8.736;2023-01-28T23:23:34;-1.60;99.30
54960;DHT22;40860;51.710;8.736;2023-01-28T23:27:55;-1.60;99.40
54960;DHT22;40860;51.710;8.736;2023-01-28T23:31:59;-1.60;99.40
54960;DHT22;40860;51.710;8.736;2023-01-28T23:36:03;-1.70;99.50
54960;DHT22;40860;51.710;8.736;2023-01-28T23:40:06;-1.70;99.50
54960;DHT22;40860;51.710;8.736;2023-01-28T23:44:11;-1.70;99.60
54960;DHT22;40860;51.710;8.736;2023-01-28T23:48:13;-1.70;99.50
54960;DHT22;40860;51.710;8.736;2023-01-28T23:52:16;-1.80;99.50
54960;DHT22;40860;51.710;8.736;2023-01-28T23:56:19;-1.80;99.60
